WI5KEY Weather Reports


Display with metric or nautical units.
time (UTC)temp
F
wind
direction
speed
MPH
gust
MPH
rain 1hr
in
rain 24hr
in
rain mn
in
humidity
%
barometer
mb
20220701050014 81 137 6.0 10.0 0.00 0.00 0.00 80 1014.5
20220701044512 81 148 5.0 11.0 0.00 0.00 0.00 78 1014.4
20220701043011 82 119 11.0 16.0 0.00 0.00 0.00 76 1014.3
20220701041516 83 123 8.0 15.0 0.00 0.00 0.00 73 1014.2
20220701040010 83 124 7.0 13.0 0.00 0.00 0.00 69 1014.0
20220701034509 84 138 8.0 13.0 0.00 0.00 0.00 67 1013.8
20220701033008 84 120 8.0 16.0 0.00 0.00 0.00 66 1013.7
20220701031506 85 136 9.0 16.0 0.00 0.00 0.00 64 1013.5
20220701030007 85 138 6.0 13.0 0.00 0.00 0.00 63 1013.4
20220701024506 86 136 4.0 12.0 0.00 0.00 0.00 60 1013.3
20220701023004 87 123 9.0 15.0 0.00 0.00 0.00 59 1013.1
20220701021504 87 125 4.0 12.0 0.00 0.00 0.00 59 1013.0
20220701020004 88 128 5.0 14.0 0.00 0.00 0.00 58 1012.8
20220701014503 89 145 5.0 17.0 0.00 0.00 0.00 56 1012.6
20220701013002 90 119 5.0 12.0 0.00 0.00 0.00 55 1012.4
20220701011501 91 116 6.0 15.0 0.00 0.00 0.00 52 1012.3
20220701010105 92 151 3.0 13.0 0.00 0.00 0.00 50 1012.2
20220701004559 93 121 10.0 15.0 0.00 0.00 0.00 48 1012.2
20220701003058 94 124 2.0 9.0 0.00 0.00 0.00 42 1012.0
20220701001558 95 62 2.0 9.0 0.00 0.00 0.00 42 1011.9
20220701000056 95 117 1.0 13.0 0.00 0.00 0.00 41 1011.9
20220630234556 95 71 2.0 11.0 0.00 0.00 0.00 41 1012.0
20220630233054 96 108 3.0 11.0 0.00 0.00 0.00 40 1011.9
20220630231559 95 109 0.0 10.0 0.00 0.00 0.00 42 1012.0
20220630230053 97 132 3.0 13.0 0.00 0.00 0.00 41 1012.0
20220630224552 95 96 0.0 10.0 0.00 0.00 0.00 41 1012.1
20220630223051 97 127 8.0 13.0 0.00 0.00 0.00 39 1012.1
20220630221549 96 121 2.0 13.0 0.00 0.00 0.00 40 1012.3
20220630220054 98 74 1.0 12.0 0.00 0.00 0.00 39 1012.4
20220630214546 97 76 6.0 16.0 0.00 0.00 0.00 39 1012.6
20220630213044 98 57 3.0 11.0 0.00 0.00 0.00 38 1012.7
20220630211541 99 33 3.0 13.0 0.00 0.00 0.00 34 1012.9
20220630210040 98 102 3.0 12.0 0.00 0.00 0.00 36 1013.1
20220630204538 99 55 6.0 14.0 0.00 0.00 0.00 35 1013.3
20220630203035 98 67 2.0 11.0 0.00 0.00 0.00 39 1013.6
20220630201533 98 55 6.0 17.0 0.00 0.00 0.00 39 1013.9
20220630200032 99 99 4.0 14.0 0.00 0.00 0.00 39 1014.0
20220630194529 96 131 5.0 13.0 0.00 0.00 0.00 44 1014.2
20220630193027 95 73 4.0 10.0 0.00 0.00 0.00 44 1014.5
20220630191526 96 145 3.0 12.0 0.00 0.00 0.00 43 1014.6
20220630190024 96 103 2.0 13.0 0.00 0.00 0.00 42 1014.9
20220630184522 96 19 2.0 14.0 0.00 0.00 0.00 44 1015.0
20220630183019 95 53 2.0 12.0 0.00 0.00 0.00 46 1015.3
20220630181517 95 97 0.0 6.0 0.00 0.00 0.00 47 1015.3
20220630180016 93 59 1.0 5.0 0.00 0.00 0.00 48 1015.5
20220630174514 93 80 1.0 10.0 0.00 0.00 0.00 48 1015.7
20220630173015 93 55 1.0 12.0 0.00 0.00 0.00 51 1015.8
20220630171509 93 55 2.0 6.0 0.00 0.00 0.00 50 1016.0
20220630170010 92 34 0.0 3.0 0.00 0.00 0.00 53 1016.2
20220630164504 91 16 0.0 2.0 0.00 0.00 0.00 53 1016.3
20220630163002 91 36 1.0 6.0 0.00 0.00 0.00 54 1016.2
20220630161501 90 318 0.0 0.0 0.00 0.00 0.00 56 1016.4
20220630160059 89 101 0.0 0.0 0.00 0.00 0.00 59 1016.4
20220630154556 89 24 0.0 0.0 0.00 0.00 0.00 61 1016.7
20220630153107 87 40 0.0 0.0 0.00 0.00 0.00 61 1016.9
20220630151549 85 159 0.0 0.0 0.00 0.00 0.00 65 1017.0
20220630150047 85 115 0.0 0.0 0.00 0.00 0.00 68 1017.1
20220630144545 84 19 0.0 0.0 0.00 0.00 0.00 71 1017.3
20220630143042 84 298 0.0 0.0 0.00 0.00 0.00 73 1017.2
20220630141541 82 344 0.0 0.0 0.00 0.00 0.00 75 1017.3
20220630140042 81 348 0.0 0.0 0.00 0.00 0.00 81 1017.4
20220630134535 79 300 0.0 0.0 0.00 0.00 0.00 84 1017.2
20220630133032 78 270 0.0 0.0 0.00 0.00 0.00 87 1017.1
20220630131531 77 223 0.0 0.0 0.00 0.00 0.00 89 1017.3
20220630130032 74 222 0.0 0.0 0.00 0.00 0.00 92 1017.4
20220630124528 73 222 0.0 0.0 0.00 0.00 0.00 93 1017.5
20220630123034 72 176 0.0 0.0 0.00 0.00 0.00 93 1017.4
20220630121527 72 176 0.0 0.0 0.00 0.00 0.00 93 1017.3
20220630120032 71 134 0.0 0.0 0.00 0.00 0.00 93 1017.4
20220630114527 71 134 0.0 0.0 0.00 0.00 0.00 94 1017.3
20220630113025 71 136 0.0 0.0 0.00 0.00 0.00 94 1017.3
20220630111524 71 135 0.0 0.0 0.00 0.00 0.00 93 1017.4
20220630110022 71 136 0.0 0.0 0.00 0.00 0.00 93 1017.5
20220630104520 72 136 0.0 0.0 0.00 0.00 0.00 92 1017.5
20220630103018 72 135 0.0 0.0 0.00 0.00 0.00 92 1017.5
20220630101517 73 136 0.0 0.0 0.00 0.00 0.00 92 1017.6
20220630100017 72 136 0.0 0.0 0.00 0.00 0.00 92 1017.7
20220630094517 72 136 0.0 0.0 0.00 0.00 0.00 92 1017.8
20220630093114 73 135 0.0 0.0 0.00 0.00 0.00 91 1017.8
20220630091513 73 136 0.0 0.0 0.00 0.00 0.00 90 1017.6
20220630090014 73 136 0.0 0.0 0.00 0.00 0.00 90 1017.7
20220630084517 74 136 0.0 0.0 0.00 0.00 0.00 90 1017.7
20220630083010 73 136 0.0 0.0 0.00 0.00 0.00 90 1017.7
20220630081513 74 136 0.0 0.0 0.00 0.00 0.00 90 1017.7
20220630080008 74 135 0.0 0.0 0.00 0.00 0.00 89 1017.7
20220630074508 73 136 0.0 0.0 0.00 0.00 0.00 89 1017.7
20220630073005 75 136 0.0 0.0 0.00 0.00 0.00 86 1017.7
20220630071506 76 136 0.0 0.0 0.00 0.00 0.00 86 1017.8
20220630070003 74 136 0.0 0.0 0.00 0.00 0.00 87 1017.8
20220630064502 75 135 0.0 0.0 0.00 0.01 0.00 86 1017.9
20220630063059 76 136 0.0 0.0 0.00 0.01 0.00 84 1018.0
20220630061559 76 137 0.0 0.0 0.00 0.01 0.00 84 1018.1
20220630060057 77 137 0.0 0.0 0.00 0.01 0.00 82 1018.1
20220630054605 76 137 0.0 0.0 0.00 0.01 0.00 82 1018.1
20220630053101 76 137 0.0 0.0 0.00 0.01 0.00 84 1018.2
20220630051556 76 137 0.0 0.0 0.00 0.01 0.00 82 1018.1